createdAt,value
2018-03-14T11:01:07.411Z,98348.78
2018-03-14T11:03:35.909Z,98344.86
2018-03-14T11:06:03.455Z,98356.77
2018-03-14T11:08:31.007Z,98346.83
2018-03-14T11:10:58.546Z,98347.73
2018-03-14T11:13:26.052Z,98351.64
2018-03-14T11:15:54.238Z,98353.61
2018-03-14T11:20:39.414Z,98348.36
2018-03-14T11:23:07.119Z,98336.42
2018-03-14T11:25:34.713Z,98338.08
2018-03-14T11:28:02.238Z,98338.36
2018-03-14T11:30:29.695Z,98348.02
2018-03-14T11:32:57.187Z,98343.02
2018-03-14T11:35:24.655Z,98342.02
2018-03-14T11:37:52.175Z,98347.40
2018-03-14T11:40:21.672Z,98341.50
2018-03-14T11:42:49.175Z,98344.84
2018-03-14T11:45:16.674Z,98343.43
2018-03-14T11:47:58.120Z,98334.35
2018-03-14T11:51:04.584Z,98324.15
2018-03-14T11:53:45.346Z,98327.00
2018-03-14T11:56:26.099Z,98331.85
2018-03-14T11:59:07.124Z,98322.95
2018-03-14T12:01:48.688Z,98323.05
2018-03-14T12:04:30.139Z,98321.09
2018-03-14T12:07:11.023Z,98312.57
2018-03-14T12:09:52.136Z,98311.04
2018-03-14T12:12:32.879Z,98303.43
2018-03-14T12:15:14.101Z,98302.73
2018-03-14T12:17:55.407Z,98293.89
2018-03-14T12:20:36.429Z,98297.09
2018-03-14T12:23:17.543Z,98295.35
2018-03-14T12:25:58.908Z,98293.07
2018-03-14T12:28:39.708Z,98292.81
2018-03-14T12:31:20.586Z,98283.72
2018-03-14T12:34:01.452Z,98283.55
2018-03-14T12:36:42.365Z,98283.66
2018-03-14T12:39:23.246Z,98279.08
2018-03-14T12:42:04.265Z,98273.97
2018-03-14T12:44:45.228Z,98269.44
2018-03-14T12:47:25.973Z,98269.98
2018-03-14T12:50:06.979Z,98266.15
2018-03-14T12:52:48.211Z,98261.20
2018-03-14T12:55:29.228Z,98264.23
2018-03-14T12:58:10.224Z,98259.77
2018-03-14T13:00:51.235Z,98262.57
2018-03-14T13:03:32.032Z,98264.47
2018-03-14T13:06:12.906Z,98261.11
2018-03-14T13:08:53.594Z,98258.45
2018-03-14T13:11:34.436Z,98253.81
2018-03-14T13:14:15.956Z,98254.63
2018-03-14T13:16:57.306Z,98251.23
2018-03-14T13:19:38.757Z,98241.73
2018-03-14T13:22:19.622Z,98247.78
2018-03-14T13:25:00.587Z,98242.14
2018-03-14T13:27:41.431Z,98245.22
2018-03-14T13:30:22.351Z,98240.00
2018-03-14T13:33:03.286Z,98244.80
2018-03-14T13:35:46.135Z,98242.92
2018-03-14T13:38:26.924Z,98237.41
2018-03-14T13:41:07.945Z,98235.53
2018-03-14T13:43:48.894Z,98233.68
2018-03-14T13:46:29.772Z,98239.97
2018-03-14T13:49:10.654Z,98235.09
2018-03-14T13:51:51.847Z,98232.28
2018-03-14T13:54:32.673Z,98229.98
2018-03-14T13:57:13.399Z,98229.45
2018-03-14T13:59:54.483Z,98220.23
2018-03-14T14:02:35.213Z,98224.87
2018-03-14T14:05:16.821Z,98226.08
2018-03-14T14:07:57.899Z,98227.02
2018-03-14T14:10:38.812Z,98224.05
2018-03-14T14:13:19.770Z,98220.34
2018-03-14T14:16:00.731Z,98223.52
2018-03-14T14:18:42.128Z,98232.05
2018-03-14T14:21:23.533Z,98224.01
2018-03-14T14:24:05.149Z,98225.84
2018-03-14T14:26:46.048Z,98227.92
2018-03-14T14:29:27.524Z,98236.39
2018-03-14T14:32:08.575Z,98238.94
2018-03-14T14:34:49.262Z,98228.38
2018-03-14T14:37:30.437Z,98222.63
2018-03-14T14:40:11.433Z,98226.08
2018-03-14T14:42:52.355Z,98219.84
2018-03-14T14:45:33.160Z,98218.85
2018-03-14T14:48:13.835Z,98214.62
2018-03-14T14:50:54.549Z,98216.77
2018-03-14T14:53:35.673Z,98215.56
2018-03-14T14:56:16.768Z,98210.51
2018-03-14T14:58:57.808Z,98211.06
2018-03-14T15:01:38.576Z,98212.60
2018-03-14T15:04:20.332Z,98218.52
2018-03-14T15:07:01.338Z,98218.27
2018-03-14T15:09:42.076Z,98218.80
2018-03-14T15:12:22.890Z,98214.19
2018-03-14T15:15:05.297Z,98209.05
2018-03-14T15:17:46.429Z,98197.81
2018-03-14T15:20:27.425Z,98197.77
2018-03-14T15:23:08.265Z,98192.38
2018-03-14T15:25:49.093Z,98201.48
2018-03-14T15:28:29.806Z,98197.39
2018-03-14T15:31:10.952Z,98199.31
2018-03-14T15:33:52.476Z,98205.89
2018-03-14T15:36:33.373Z,98201.66
2018-03-14T15:39:14.384Z,98197.57
2018-03-14T15:41:55.266Z,98192.02
2018-03-14T15:44:37.066Z,98193.96
2018-03-14T15:47:18.693Z,98192.63
2018-03-14T15:49:59.564Z,98193.50
2018-03-14T15:52:40.404Z,98197.38
2018-03-14T15:55:21.369Z,98196.50
2018-03-14T15:58:01.937Z,98195.40
2018-03-14T16:00:42.893Z,98185.04
2018-03-14T16:03:23.790Z,98184.09
2018-03-14T16:06:04.432Z,98184.22
2018-03-14T16:08:45.395Z,98186.09
2018-03-14T16:11:26.415Z,98177.73
2018-03-14T16:14:07.353Z,98176.16
2018-03-14T16:16:48.326Z,98164.86
2018-03-14T16:19:29.059Z,98173.09
2018-03-14T16:22:10.267Z,98175.99
2018-03-14T16:24:50.963Z,98173.71
2018-03-14T16:27:31.908Z,98172.56
2018-03-14T16:30:12.930Z,98171.53
2018-03-14T16:32:53.832Z,98174.84
2018-03-14T16:35:35.442Z,98179.20
2018-03-14T16:38:16.242Z,98185.29
2018-03-14T16:40:56.972Z,98176.98
2018-03-14T16:43:37.645Z,98184.66
2018-03-14T16:46:18.652Z,98183.16
2018-03-14T16:48:59.533Z,98179.39
2018-03-14T16:51:40.295Z,98178.76
2018-03-14T16:54:21.089Z,98187.75
2018-03-14T16:57:02.657Z,98174.51
2018-03-14T16:59:43.495Z,98175.66
2018-03-14T17:02:24.207Z,98174.53
2018-03-14T17:05:04.863Z,98176.91
2018-03-14T17:07:45.599Z,98177.80
2018-03-14T17:10:26.440Z,98176.97
2018-03-14T17:13:07.395Z,98178.67
2018-03-14T17:15:35.557Z,98183.14
2018-03-14T17:18:03.660Z,98179.76
2018-03-14T17:20:31.830Z,98188.52
2018-03-14T17:22:59.944Z,98182.91
2018-03-14T17:25:28.148Z,98183.80
2018-03-14T17:27:56.310Z,98188.83
2018-03-14T17:30:24.493Z,98186.31
2018-03-14T17:32:52.653Z,98188.16
2018-03-14T17:35:20.827Z,98184.41
2018-03-14T17:37:49.016Z,98183.45
2018-03-14T17:40:17.204Z,98191.24
2018-03-14T17:42:45.368Z,98195.27
2018-03-14T17:45:13.539Z,98192.26
2018-03-14T17:47:41.656Z,98193.19
2018-03-14T17:50:09.812Z,98192.27
2018-03-14T17:52:37.966Z,98192.39
2018-03-14T17:55:06.120Z,98193.97
2018-03-14T17:57:34.312Z,98191.83
2018-03-14T18:00:02.467Z,98192.75
2018-03-14T18:02:30.587Z,98187.72
2018-03-14T18:04:58.731Z,98184.58
2018-03-14T18:07:26.863Z,98182.37
2018-03-14T18:09:55.028Z,98179.37
2018-03-14T18:12:23.170Z,98170.97
2018-03-14T18:14:51.304Z,98174.34
2018-03-14T18:17:19.440Z,98181.09
2018-03-14T18:19:47.613Z,98172.95
2018-03-14T18:22:15.768Z,98169.52
2018-03-14T18:24:43.960Z,98170.44
2018-03-14T18:27:12.075Z,98161.37
2018-03-14T18:29:40.251Z,98167.27
2018-03-14T18:32:08.522Z,98163.39
2018-03-14T18:34:36.697Z,98164.47
2018-03-14T18:37:04.945Z,98162.11
2018-03-14T18:39:33.118Z,98162.73
2018-03-14T18:42:01.246Z,98164.10
2018-03-14T18:44:29.456Z,98165.39
2018-03-14T18:46:59.045Z,98169.84
2018-03-14T18:49:27.281Z,98161.44
2018-03-14T18:51:55.443Z,98159.28
2018-03-14T18:54:23.559Z,98158.84
2018-03-14T18:56:51.759Z,98159.51
2018-03-14T18:59:19.988Z,98159.14
2018-03-14T19:01:48.120Z,98156.13
2018-03-14T19:04:16.296Z,98158.27
2018-03-14T19:06:44.466Z,98152.44
2018-03-14T19:09:12.624Z,98150.59
2018-03-14T19:11:41.585Z,98148.34
2018-03-14T19:14:09.735Z,98152.03
2018-03-14T19:16:37.961Z,98152.70
2018-03-14T19:19:06.122Z,98150.03
2018-03-14T19:21:34.302Z,98145.77
2018-03-14T19:24:02.459Z,98144.14
2018-03-14T19:26:30.625Z,98141.73
2018-03-14T19:28:58.946Z,98140.38
2018-03-14T19:31:27.068Z,98139.81
2018-03-14T19:33:55.205Z,98138.55
2018-03-14T19:36:23.345Z,98133.98
2018-03-14T19:38:51.508Z,98136.38
2018-03-14T19:41:20.823Z,98133.27
2018-03-14T19:43:49.375Z,98134.56
2018-03-14T19:46:18.286Z,98133.81
2018-03-14T19:48:46.420Z,98128.02
2018-03-14T19:51:14.592Z,98129.66
2018-03-14T19:53:42.732Z,98125.19
2018-03-14T19:56:10.886Z,98120.06
2018-03-14T19:58:39.049Z,98117.02
2018-03-14T20:01:07.199Z,98123.86
2018-03-14T20:03:35.583Z,98118.84
2018-03-14T20:06:03.748Z,98112.07
2018-03-14T20:08:31.903Z,98117.59
2018-03-14T20:11:00.097Z,98117.16
2018-03-14T20:13:28.280Z,98112.84
2018-03-14T20:15:56.424Z,98115.16
2018-03-14T20:18:24.624Z,98113.70
2018-03-14T20:20:52.785Z,98117.67
2018-03-14T20:23:20.955Z,98111.55
2018-03-14T20:25:49.131Z,98113.61
2018-03-14T20:28:17.285Z,98107.34
2018-03-14T20:30:45.460Z,98115.36
2018-03-14T20:33:13.596Z,98119.63
2018-03-14T20:35:41.718Z,98119.83
2018-03-14T20:38:09.979Z,98118.51
2018-03-14T20:40:38.120Z,98117.89
2018-03-14T20:43:06.469Z,98114.19
2018-03-14T20:45:34.678Z,98112.30
2018-03-14T20:48:02.845Z,98106.59
2018-03-14T20:50:30.994Z,98115.24
2018-03-14T20:52:59.206Z,98117.94
2018-03-14T20:55:29.146Z,98114.23
2018-03-14T20:57:57.327Z,98108.78
2018-03-14T21:00:25.522Z,98115.09
2018-03-14T21:02:53.668Z,98109.42
2018-03-14T21:05:21.831Z,98108.53
2018-03-14T21:07:50.015Z,98118.70
2018-03-14T21:10:18.191Z,98110.25
2018-03-14T21:12:46.397Z,98108.47
2018-03-14T21:15:14.581Z,98102.53
2018-03-14T21:17:42.806Z,98111.39
2018-03-14T21:20:10.961Z,98108.64
2018-03-14T21:22:39.123Z,98104.73
2018-03-14T21:25:07.252Z,98100.55
2018-03-14T21:27:35.404Z,98097.97
2018-03-14T21:30:03.603Z,98088.30
2018-03-14T21:32:31.824Z,98080.81
2018-03-14T21:34:59.995Z,98084.22
2018-03-14T21:37:28.321Z,98078.52
2018-03-14T21:39:56.473Z,98077.86
2018-03-14T21:42:24.656Z,98080.90
2018-03-14T21:44:52.834Z,98070.56
2018-03-14T21:47:21.021Z,98071.72
2018-03-14T21:49:49.177Z,98063.59
2018-03-14T21:52:17.333Z,98062.50
2018-03-14T21:54:45.524Z,98060.41
2018-03-14T21:57:19.625Z,98058.50
2018-03-14T21:59:47.748Z,98053.48
2018-03-14T22:02:15.903Z,98064.73
2018-03-14T22:04:44.062Z,98054.86
2018-03-14T22:07:12.201Z,98056.80
2018-03-14T22:09:40.339Z,98058.50
2018-03-14T22:12:08.483Z,98055.73
2018-03-14T22:14:36.677Z,98055.20
2018-03-14T22:17:04.903Z,98053.00
2018-03-14T22:19:33.292Z,98059.58
2018-03-14T22:22:01.448Z,98050.88
2018-03-14T22:24:29.630Z,98047.77
2018-03-14T22:26:57.761Z,98049.66
2018-03-14T22:29:25.901Z,98050.31
2018-03-14T22:31:54.044Z,98046.73
2018-03-14T22:34:22.216Z,98049.84
2018-03-14T22:36:50.339Z,98050.55
2018-03-14T22:39:18.499Z,98049.50
2018-03-14T22:41:46.635Z,98039.34
2018-03-14T22:44:14.757Z,98040.55
2018-03-14T22:46:43.086Z,98036.41
2018-03-14T22:49:11.228Z,98030.69
2018-03-14T22:51:39.372Z,98032.50
2018-03-14T22:54:07.718Z,98031.34
2018-03-14T22:56:35.984Z,98028.94
2018-03-14T22:59:04.126Z,98034.64
2018-03-14T23:01:32.276Z,98027.34
2018-03-14T23:04:00.451Z,98040.97
2018-03-14T23:06:28.618Z,98026.82
2018-03-14T23:08:56.751Z,98037.09
2018-03-14T23:11:24.892Z,98028.62
2018-03-14T23:13:53.092Z,98026.81
2018-03-14T23:16:21.224Z,98028.56
2018-03-14T23:18:49.404Z,98024.94
2018-03-14T23:21:18.079Z,98022.83
2018-03-14T23:23:46.237Z,98022.98
2018-03-14T23:26:14.437Z,98021.16
2018-03-14T23:28:42.659Z,98010.54
2018-03-14T23:31:10.855Z,98007.11
2018-03-14T23:33:39.034Z,98012.00
2018-03-14T23:36:07.183Z,98016.48
2018-03-14T23:38:35.568Z,98012.50
2018-03-14T23:41:03.872Z,98013.13
2018-03-14T23:43:32.071Z,98008.99
2018-03-14T23:46:00.212Z,98004.81
2018-03-14T23:48:28.401Z,97999.00
2018-03-14T23:50:56.553Z,98001.28
2018-03-14T23:53:24.703Z,97999.61
2018-03-14T23:55:52.874Z,97986.61
2018-03-14T23:58:21.020Z,97985.06
